Time;durP1;ratioP1;P1;durP2;ratioP2;P2;SDS_P1;SDS_P2;PMS_P1;PMS_P2;Temp;Humidity;BMP_temperature;BMP_pressure;BME280_temperature;BME280_humidity;BME280_pressure;Samples;Min_cycle;Max_cycle;Signal;HPM_P1;HPM_P2
2022/07/19 00:00:10;;;;;;;;;;;;;;;18.12;80.05;98796.55;1704808;84;20282;-85
2022/07/19 00:02:38;;;;;;;;;;;;;;;18.09;80.27;98804.32;1705286;83;21265;-85
2022/07/19 00:05:05;;;;;;;;;;;;;;;18.02;80.52;98799.73;1712174;82;21965;-85
2022/07/19 00:07:31;;;;;;;;;;;;;;;17.85;80.77;98806.62;1705531;83;26071;-85
2022/07/19 00:09:57;;;;;;;;;;;;;;;17.68;81.13;98803.38;1716062;82;20899;-85
2022/07/19 00:12:23;;;;;;;;;;;;;;;17.52;81.39;98802.13;1716344;82;20361;-85
2022/07/19 00:14:52;;;;;;;;;;;;;;;17.48;81.82;98797.27;1710811;82;20397;-86
2022/07/19 00:17:23;;;;;;;;;;;;;;;17.51;82.34;98808.39;1705628;83;22066;-86
2022/07/19 00:19:49;;;;;;;;;;;;;;;17.57;82.86;98807.83;1705622;82;26223;-86
2022/07/19 00:22:15;;;;;;;;;;;;;;;17.65;83.33;98804.52;1707186;82;20832;-86
2022/07/19 00:24:41;;;;;;;;;;;;;;;17.73;83.73;98807.79;1709561;82;20784;-86
2022/07/19 00:27:07;;;;;;;;;;;;;;;17.67;83.94;98810.52;1709377;82;24719;-86
2022/07/19 00:29:35;;;;;;;;;;;;;;;17.68;84.17;98813.48;1706230;82;22054;-86
2022/07/19 00:32:01;;;;;;;;;;;;;;;17.65;84.44;98812.46;1705814;82;26131;-85
2022/07/19 00:34:35;;;;;;;;;;;;;;;17.62;84.71;98806.63;1709858;83;20832;-85
2022/07/19 00:37:01;;;;;;;;;;;;;;;17.74;85.11;98806.30;1708899;83;20219;-86
2022/07/19 00:39:27;;;;;;;;;;;;;;;17.87;85.38;98805.51;1709634;84;20238;-86
2022/07/19 00:41:54;;;;;;;;;;;;;;;17.94;85.49;98807.94;1709416;82;22608;-85
2022/07/19 00:44:21;;;;;;;;;;;;;;;17.94;85.55;98806.61;1709728;83;25981;-85
2022/07/19 00:46:49;;;;;;;;;;;;;;;17.89;85.74;98804.86;1709261;84;24458;-85
2022/07/19 00:49:16;;;;;;;;;;;;;;;17.85;85.85;98800.00;1709283;83;20469;-85
2022/07/19 00:51:42;;;;;;;;;;;;;;;17.84;85.97;98807.11;1708847;83;24899;-85
2022/07/19 00:54:10;;;;;;;;;;;;;;;17.79;86.08;98808.52;1709759;84;21932;-85
2022/07/19 00:56:37;;;;;;;;;;;;;;;17.79;86.23;98807.19;1708114;84;26781;-85
2022/07/19 00:59:09;;;;;;;;;;;;;;;17.75;86.43;98813.75;1709579;84;24697;-86
2022/07/19 01:01:35;;;;;;;;;;;;;;;17.70;86.60;98803.59;1708310;83;20258;-85
2022/07/19 01:04:01;;;;;;;;;;;;;;;17.70;86.81;98800.95;1709521;84;20253;-85
2022/07/19 01:06:28;;;;;;;;;;;;;;;17.73;87.05;98799.84;1709673;83;21996;-86
2022/07/19 01:08:54;;;;;;;;;;;;;;;17.79;87.22;98799.24;1708690;82;20971;-86
2022/07/19 01:11:20;;;;;;;;;;;;;;;17.80;87.38;98804.41;1708458;82;24611;-86
2022/07/19 01:13:49;;;;;;;;;;;;;;;17.85;87.58;98792.89;1709645;82;20258;-85
2022/07/19 01:16:16;;;;;;;;;;;;;;;17.88;87.65;98793.95;1708295;82;25502;-86
2022/07/19 01:18:44;;;;;;;;;;;;;;;17.90;87.65;98789.32;1709637;82;21628;-86
2022/07/19 01:21:18;;;;;;;;;;;;;;;17.90;87.63;98793.78;1710035;82;26054;-87
2022/07/19 01:23:44;;;;;;;;;;;;;;;17.74;87.52;98798.84;1708388;82;24609;-86
2022/07/19 01:26:10;;;;;;;;;;;;;;;17.54;87.57;98803.32;1718368;82;20314;-86
2022/07/19 01:28:35;;;;;;;;;;;;;;;17.37;87.78;98804.03;1707485;82;20816;-86
2022/07/19 01:31:02;;;;;;;;;;;;;;;17.18;88.23;98804.06;1719391;82;20337;-86
2022/07/19 01:33:28;;;;;;;;;;;;;;;17.02;88.84;98810.72;1711718;82;26027;-87
2022/07/19 01:35:54;;;;;;;;;;;;;;;16.90;89.46;98808.36;1709749;82;20866;-87
2022/07/19 01:38:21;;;;;;;;;;;;;;;16.86;90.01;98810.42;1702022;82;20485;-87
2022/07/19 01:40:47;;;;;;;;;;;;;;;17.00;90.78;98798.62;1710183;82;24996;-87
2022/07/19 01:43:13;;;;;;;;;;;;;;;17.19;91.47;98799.93;1705508;83;22035;-87
2022/07/19 01:45:46;;;;;;;;;;;;;;;17.35;91.88;98795.39;1716328;82;21106;-87
2022/07/19 01:48:11;;;;;;;;;;;;;;;17.45;92.18;98792.27;1709703;82;25183;-87
2022/07/19 01:50:39;;;;;;;;;;;;;;;17.52;92.31;98794.19;1708916;82;20831;-87
2022/07/19 01:53:07;;;;;;;;;;;;;;;17.36;92.31;98795.75;1713019;82;24849;-87
2022/07/19 01:55:36;;;;;;;;;;;;;;;17.10;92.28;98794.16;1705319;83;21935;-87
2022/07/19 01:58:04;;;;;;;;;;;;;;;16.88;92.26;98803.69;1712359;82;26159;-87
2022/07/19 02:00:30;;;;;;;;;;;;;;;16.76;92.47;98805.61;1717302;82;24414;-87
2022/07/19 02:02:56;;;;;;;;;;;;;;;16.68;92.90;98801.51;1714935;82;20191;-87
2022/07/19 02:05:22;;;;;;;;;;;;;;;16.77;93.47;98805.97;1711912;82;20238;-87
2022/07/19 02:07:50;;;;;;;;;;;;;;;16.94;93.97;98806.62;1705301;83;20832;-87
2022/07/19 02:10:16;;;;;;;;;;;;;;;17.09;94.33;98810.52;1713314;82;26151;-87
2022/07/19 02:12:44;;;;;;;;;;;;;;;17.18;94.50;98809.35;1713682;82;21489;-87
2022/07/19 02:15:12;;;;;;;;;;;;;;;17.20;94.59;98817.48;1704132;82;20201;-87
2022/07/19 02:17:43;;;;;;;;;;;;;;;17.21;94.65;98820.47;1719070;82;24771;-87
2022/07/19 02:20:07;;;;;;;;;;;;;;;17.23;94.60;98808.44;1704715;83;22144;-88
2022/07/19 02:22:32;;;;;;;;;;;;;;;17.30;94.54;98813.02;1719410;80;25990;-88
2022/07/19 02:25:05;;;;;;;;;;;;;;;17.38;94.51;98804.39;1735492;82;20353;-88
2022/07/19 02:27:30;;;;;;;;;;;;;;;17.37;94.48;98804.03;1730952;82;20300;-87
2022/07/19 02:29:57;;;;;;;;;;;;;;;17.25;94.43;98803.83;1730872;82;20281;-87
2022/07/19 02:32:23;;;;;;;;;;;;;;;17.18;94.41;98812.84;1729348;82;22003;-86
2022/07/19 02:34:50;;;;;;;;;;;;;;;17.18;94.39;98810.19;1722740;82;21010;-87
2022/07/19 02:37:15;;;;;;;;;;;;;;;17.15;94.29;98808.64;1729342;82;24505;-87
2022/07/19 02:39:41;;;;;;;;;;;;;;;17.13;94.29;98801.80;1728762;82;20304;-86
2022/07/19 02:42:07;;;;;;;;;;;;;;;17.15;94.37;98808.64;1728011;82;20861;-86
2022/07/19 02:44:33;;;;;;;;;;;;;;;17.17;94.36;98811.64;1729162;82;20359;-86
2022/07/19 02:46:59;;;;;;;;;;;;;;;17.06;94.32;98810.80;1730924;82;21025;-86
2022/07/19 02:49:25;;;;;;;;;;;;;;;16.89;94.34;98805.36;1730785;82;24477;-87
2022/07/19 02:51:51;;;;;;;;;;;;;;;16.69;94.37;98803.99;1715782;82;20289;-86
2022/07/19 02:54:17;;;;;;;;;;;;;;;16.51;94.51;98812.70;1706001;82;20235;-86
2022/07/19 02:56:43;;;;;;;;;;;;;;;16.42;94.75;98813.00;1741312;82;20261;-86
2022/07/19 02:59:13;;;;;;;;;;;;;;;16.37;95.08;98815.70;1738627;82;21046;-86
2022/07/19 03:01:41;;;;;;;;;;;;;;;16.37;95.47;98822.30;1735794;82;24529;-86
2022/07/19 03:04:11;;;;;;;;;;;;;;;16.35;95.83;98818.50;1730670;80;20215;-87
2022/07/19 03:06:37;;;;;;;;;;;;;;;16.39;96.18;98819.05;1733400;82;24941;-86
2022/07/19 03:09:04;;;;;;;;;;;;;;;16.48;96.54;98818.23;1709552;82;20175;-87
2022/07/19 03:11:36;;;;;;;;;;;;;;;16.46;96.69;98819.71;1739357;82;21166;-87
2022/07/19 03:14:02;;;;;;;;;;;;;;;16.49;96.89;98822.07;1733804;82;24538;-87
2022/07/19 03:16:28;;;;;;;;;;;;;;;16.60;97.07;98819.84;1727691;82;20269;-87
2022/07/19 03:18:55;;;;;;;;;;;;;;;16.74;97.20;98819.47;1726468;82;20682;-87
2022/07/19 03:21:23;;;;;;;;;;;;;;;16.81;97.15;98817.93;1724661;82;22155;-87
2022/07/19 03:23:49;;;;;;;;;;;;;;;16.86;97.13;98818.34;1713044;82;26645;-87
2022/07/19 03:26:21;;;;;;;;;;;;;;;16.90;97.12;98816.29;1702655;82;24449;-86
2022/07/19 03:28:47;;;;;;;;;;;;;;;16.89;96.97;98818.09;1708223;82;20493;-87
2022/07/19 03:31:13;;;;;;;;;;;;;;;16.88;96.92;98827.48;1709908;82;20375;-87
2022/07/19 03:33:41;;;;;;;;;;;;;;;16.72;96.79;98828.01;1705333;83;20895;-87
2022/07/19 03:36:07;;;;;;;;;;;;;;;16.59;96.82;98830.05;1715070;82;26062;-85
2022/07/19 03:38:33;;;;;;;;;;;;;;;16.55;96.93;98828.63;1704049;84;20301;-85
2022/07/19 03:40:59;;;;;;;;;;;;;;;16.53;97.08;98831.91;1709569;82;20316;-86
2022/07/19 03:43:25;;;;;;;;;;;;;;;16.58;97.33;98839.75;1714763;82;20760;-85
2022/07/19 03:45:51;;;;;;;;;;;;;;;16.64;97.59;98835.28;1715359;82;22081;-85
2022/07/19 03:48:21;;;;;;;;;;;;;;;16.76;97.87;98836.49;1713072;82;20959;-86
2022/07/19 03:50:47;;;;;;;;;;;;;;;16.79;97.92;98837.08;1711319;82;24459;-85
2022/07/19 03:53:13;;;;;;;;;;;;;;;16.83;97.94;98839.78;1718275;82;20336;-85
2022/07/19 03:55:41;;;;;;;;;;;;;;;16.93;98.10;98837.16;1704990;83;24772;-85
2022/07/19 03:58:08;;;;;;;;;;;;;;;17.06;98.23;98841.22;1712212;82;22025;-86
2022/07/19 04:00:34;;;;;;;;;;;;;;;17.23;98.49;98844.16;1706449;82;26108;-86
2022/07/19 04:03:00;;;;;;;;;;;;;;;17.39;98.72;98853.69;1708683;82;20885;-86
2022/07/19 04:05:39;;;;;;;;;;;;;;;17.46;98.67;98855.62;1719374;82;20308;-86
2022/07/19 04:08:03;;;;;;;;;;;;;;;17.51;98.67;98861.32;1713426;82;24828;-86
2022/07/19 04:10:29;;;;;;;;;;;;;;;17.57;98.83;98853.31;1710513;82;21949;-86
2022/07/19 04:12:55;;;;;;;;;;;;;;;17.64;99.05;98853.13;1714043;82;21110;-86
2022/07/19 04:15:21;;;;;;;;;;;;;;;17.82;99.41;98857.23;1708477;82;20892;-86
2022/07/19 04:17:47;;;;;;;;;;;;;;;18.07;99.77;98858.41;1710757;82;20733;-86
2022/07/19 04:20:20;;;;;;;;;;;;;;;18.32;99.97;98859.11;1705142;82;20784;-86
2022/07/19 04:22:46;;;;;;;;;;;;;;;18.57;100.00;98856.30;1704848;82;22105;-86
2022/07/19 04:25:13;;;;;;;;;;;;;;;18.74;99.95;98861.66;1706710;82;21718;-86
2022/07/19 04:27:38;;;;;;;;;;;;;;;18.91;99.71;98860.51;1703525;83;24421;-86
2022/07/19 04:30:05;;;;;;;;;;;;;;;19.04;99.36;98860.97;1704111;82;20337;-86
2022/07/19 04:32:31;;;;;;;;;;;;;;;19.18;99.04;98855.16;1704666;82;24878;-86
2022/07/19 04:35:00;;;;;;;;;;;;;;;19.30;98.65;98856.61;1716092;82;22847;-86
2022/07/19 04:37:25;;;;;;;;;;;;;;;19.39;98.24;98861.00;1710126;82;26123;-86
2022/07/19 04:39:51;;;;;;;;;;;;;;;19.44;97.74;98859.20;1704008;82;20848;-86
2022/07/19 04:42:18;;;;;;;;;;;;;;;19.28;97.37;98857.73;1708707;82;20489;-86
2022/07/19 04:44:45;;;;;;;;;;;;;;;19.05;97.03;98858.66;1711557;82;24832;-85
2022/07/19 04:47:10;;;;;;;;;;;;;;;18.82;96.75;98864.06;1717857;82;22185;-85
2022/07/19 04:49:36;;;;;;;;;;;;;;;18.62;96.64;98864.64;1713427;81;20969;-85
2022/07/19 04:52:02;;;;;;;;;;;;;;;18.47;96.66;98869.57;1686554;82;20316;-86
2022/07/19 04:54:28;;;;;;;;;;;;;;;18.39;96.90;98861.50;1704212;82;20301;-86
2022/07/19 04:56:56;;;;;;;;;;;;;;;18.43;97.26;98861.58;1717337;82;20776;-86
2022/07/19 04:59:24;;;;;;;;;;;;;;;18.57;97.77;98869.06;1712040;82;21988;-85
2022/07/19 05:01:50;;;;;;;;;;;;;;;18.61;98.19;98866.94;1712840;82;25981;-85
2022/07/19 05:04:16;;;;;;;;;;;;;;;18.71;98.61;98866.43;1707825;82;20356;-85
2022/07/19 05:06:44;;;;;;;;;;;;;;;18.76;99.09;98858.86;1707382;82;20222;-85
2022/07/19 05:09:10;;;;;;;;;;;;;;;18.79;99.45;98862.53;1715864;82;24833;-85
2022/07/19 05:11:36;;;;;;;;;;;;;;;18.80;99.71;98850.45;1708674;82;22039;-85
2022/07/19 05:14:08;;;;;;;;;;;;;;;18.94;100.00;98846.94;1714490;82;21142;-85
2022/07/19 05:16:41;;;;;;;;;;;;;;;19.10;100.00;98837.33;1717203;82;24410;-85
2022/07/19 05:19:07;;;;;;;;;;;;;;;19.27;100.00;98840.97;1704040;84;20290;-85
2022/07/19 05:21:33;;;;;;;;;;;;;;;19.36;100.00;98832.61;1706816;82;20882;-86
2022/07/19 05:23:59;;;;;;;;;;;;;;;19.43;100.00;98830.98;1709786;82;20357;-85
2022/07/19 05:26:26;;;;;;;;;;;;;;;19.52;100.00;98833.61;1713459;82;22616;-85
2022/07/19 05:28:52;;;;;;;;;;;;;;;19.62;100.00;98833.02;1715140;82;24610;-86
2022/07/19 05:31:19;;;;;;;;;;;;;;;19.71;100.00;98835.72;1713080;82;32421;-86
2022/07/19 05:33:48;;;;;;;;;;;;;;;19.80;99.83;98834.81;1711126;82;24869;-86
2022/07/19 05:36:14;;;;;;;;;;;;;;;19.85;99.42;98826.72;1709266;82;21546;-86
2022/07/19 05:38:40;;;;;;;;;;;;;;;19.97;98.93;98830.75;1712804;82;26125;-86
2022/07/19 05:41:07;;;;;;;;;;;;;;;20.08;98.52;98834.13;1710466;82;20920;-86
2022/07/19 05:43:37;;;;;;;;;;;;;;;20.15;97.89;98831.19;1721167;82;20183;-86
2022/07/19 05:46:03;;;;;;;;;;;;;;;20.22;97.34;98834.89;1708810;82;24720;-86
2022/07/19 05:48:29;;;;;;;;;;;;;;;20.27;96.97;98834.76;1707763;82;22166;-86
2022/07/19 05:50:55;;;;;;;;;;;;;;;20.36;96.76;98835.65;1710298;82;21076;-86
2022/07/19 05:53:23;;;;;;;;;;;;;;;20.47;96.40;98832.71;1714692;82;25154;-86
2022/07/19 05:55:49;;;;;;;;;;;;;;;20.54;95.98;98832.91;1716390;82;20211;-86
2022/07/19 05:58:17;;;;;;;;;;;;;;;20.60;95.68;98834.44;1714111;82;20665;-86
2022/07/19 06:01:17;;;;;;;;;;;;;;;20.66;95.51;98837.78;1710818;82;21718;-86
2022/07/19 06:03:12;;;;;;;;;;;;;;;20.72;95.43;98837.14;1700091;83;25991;-86
2022/07/19 06:05:38;;;;;;;;;;;;;;;20.78;95.34;98835.14;1715757;82;20289;-87
2022/07/19 06:08:04;;;;;;;;;;;;;;;20.85;95.09;98834.00;1710570;82;20246;-87
2022/07/19 06:10:31;;;;;;;;;;;;;;;20.87;94.80;98832.02;1710611;82;20831;-86
2022/07/19 06:12:57;;;;;;;;;;;;;;;20.87;94.58;98835.52;1714868;82;22005;-87
2022/07/19 06:15:23;;;;;;;;;;;;;;;20.91;94.36;98839.17;1714722;82;20999;-86
2022/07/19 06:17:48;;;;;;;;;;;;;;;20.93;94.20;98831.88;1714468;82;20860;-86
2022/07/19 06:20:15;;;;;;;;;;;;;;;20.98;94.02;98834.38;1713906;82;20242;-87
2022/07/19 06:22:40;;;;;;;;;;;;;;;20.97;93.66;98834.04;1715451;82;24836;-86
2022/07/19 06:25:07;;;;;;;;;;;;;;;21.02;93.61;98833.05;1674745;84;20908;-86
2022/07/19 06:27:33;;;;;;;;;;;;;;;21.11;93.60;98829.39;1696132;83;26650;-86
2022/07/19 06:30:02;;;;;;;;;;;;;;;21.21;93.52;98835.95;1695813;83;20400;-87
2022/07/19 06:32:27;;;;;;;;;;;;;;;21.28;93.47;98830.28;1696984;83;20299;-86
2022/07/19 06:34:54;;;;;;;;;;;;;;;21.36;93.49;98827.64;1695821;83;20702;-87
2022/07/19 06:37:20;;;;;;;;;;;;;;;21.43;93.39;98832.65;1693907;83;22113;-87
2022/07/19 06:39:51;;;;;;;;;;;;;;;21.48;93.01;98836.14;1696650;83;21131;-86
2022/07/19 06:42:15;;;;;;;;;;;;;;;21.53;92.76;98821.82;1695445;83;24473;-86
2022/07/19 06:44:41;;;;;;;;;;;;;;;21.58;92.56;98828.31;1696488;83;20896;-86
2022/07/19 06:47:10;;;;;;;;;;;;;;;21.63;92.33;98824.65;1696469;83;24781;-85
2022/07/19 06:49:35;;;;;;;;;;;;;;;21.71;92.13;98831.28;1694329;83;22590;-85
2022/07/19 06:52:01;;;;;;;;;;;;;;;21.80;91.95;98829.95;1699665;83;20971;-84
2022/07/19 06:54:27;;;;;;;;;;;;;;;21.88;91.81;98833.43;1694911;83;20876;-85
2022/07/19 06:56:57;;;;;;;;;;;;;;;21.97;91.66;98835.63;1698207;83;20140;-84
2022/07/19 06:59:24;;;;;;;;;;;;;;;22.03;91.50;98830.96;1695266;83;24708;-85
2022/07/19 07:01:50;;;;;;;;;;;;;;;22.07;91.28;98830.95;1695696;83;21966;-85
2022/07/19 07:04:16;;;;;;;;;;;;;;;22.06;90.93;98827.44;1696165;83;21673;-85
2022/07/19 07:06:41;;;;;;;;;;;;;;;22.07;90.57;98829.61;1694910;83;20250;-85
2022/07/19 07:09:07;;;;;;;;;;;;;;;22.13;90.19;98826.27;1694708;83;20330;-84
2022/07/19 07:11:33;;;;;;;;;;;;;;;22.20;89.03;98830.42;1694689;83;20813;-85
2022/07/19 07:13:59;;;;;;;;;;;;;;;22.24;88.00;98825.06;1696228;84;22083;-85
2022/07/19 07:16:26;;;;;;;;;;;;;;;22.35;87.39;98830.03;1696148;83;21186;-85
2022/07/19 07:18:52;;;;;;;;;;;;;;;22.39;86.69;98832.67;1693516;83;24452;-85
2022/07/19 07:21:18;;;;;;;;;;;;;;;22.46;86.03;98837.16;1695122;83;20820;-85
2022/07/19 07:23:44;;;;;;;;;;;;;;;22.51;85.01;98836.14;1696374;81;20226;-85
2022/07/19 07:26:11;;;;;;;;;;;;;;;22.57;84.17;98837.28;1694399;83;22012;-85
2022/07/19 07:28:37;;;;;;;;;;;;;;;22.71;83.75;98835.23;1696799;83;26004;-85
2022/07/19 07:31:03;;;;;;;;;;;;;;;22.85;83.05;98831.84;1696411;83;20222;-85
2022/07/19 07:33:31;;;;;;;;;;;;;;;22.94;82.41;98828.62;1696811;84;20159;-84
2022/07/19 07:35:57;;;;;;;;;;;;;;;23.11;81.41;98824.84;1694384;83;24584;-84
2022/07/19 07:38:24;;;;;;;;;;;;;;;23.28;80.41;98826.90;1694684;83;20223;-85
2022/07/19 07:40:50;;;;;;;;;;;;;;;23.44;79.49;98825.44;1695266;83;25974;-85
2022/07/19 07:43:17;;;;;;;;;;;;;;;23.55;78.66;98825.05;1696572;83;20963;-85
2022/07/19 07:45:44;;;;;;;;;;;;;;;23.65;78.00;98828.30;1705831;83;20167;-85
2022/07/19 07:48:10;;;;;;;;;;;;;;;23.72;77.17;98833.75;1695224;83;20281;-85
2022/07/19 07:50:36;;;;;;;;;;;;;;;23.82;76.59;98837.00;1695753;83;20274;-85
2022/07/19 07:53:02;;;;;;;;;;;;;;;23.94;76.08;98841.41;1695793;83;26052;-85
2022/07/19 07:55:28;;;;;;;;;;;;;;;24.02;75.26;98842.64;1696756;83;20240;-85
2022/07/19 07:57:54;;;;;;;;;;;;;;;23.98;74.27;98838.68;1696183;83;20332;-85
2022/07/19 08:00:21;;;;;;;;;;;;;;;24.03;73.74;98836.29;1697910;83;20813;-84
2022/07/19 08:02:49;;;;;;;;;;;;;;;24.18;73.56;98834.48;1697150;83;21942;-84
2022/07/19 08:05:14;;;;;;;;;;;;;;;24.28;73.08;98828.85;1696781;83;27701;-85
2022/07/19 08:07:40;;;;;;;;;;;;;;;24.37;72.36;98828.59;1694679;83;20278;-85
2022/07/19 08:10:08;;;;;;;;;;;;;;;24.37;71.17;98823.25;1696330;83;20653;-84
2022/07/19 08:12:35;;;;;;;;;;;;;;;24.48;70.66;98828.63;1696004;83;24859;-85
2022/07/19 08:15:01;;;;;;;;;;;;;;;24.61;70.35;98830.13;1696783;83;21990;-84
2022/07/19 08:17:27;;;;;;;;;;;;;;;24.72;69.68;98824.80;1697379;83;21217;-84
2022/07/19 08:19:53;;;;;;;;;;;;;;;24.71;68.84;98824.50;1696089;83;20836;-85
2022/07/19 08:22:19;;;;;;;;;;;;;;;24.79;68.38;98827.89;1697058;83;21245;-85
2022/07/19 08:24:45;;;;;;;;;;;;;;;24.95;67.75;98825.53;1694164;82;20226;-85
2022/07/19 08:27:11;;;;;;;;;;;;;;;25.09;67.45;98823.33;1695100;83;20231;-84
2022/07/19 08:29:37;;;;;;;;;;;;;;;25.20;66.93;98823.34;1696921;83;25976;-85
2022/07/19 08:32:03;;;;;;;;;;;;;;;25.21;65.99;98824.46;1697635;83;20837;-84
2022/07/19 08:34:29;;;;;;;;;;;;;;;25.26;65.17;98822.55;1695506;83;20220;-85
2022/07/19 08:36:56;;;;;;;;;;;;;;;25.37;64.52;98817.52;1696571;83;20771;-84
2022/07/19 08:39:22;;;;;;;;;;;;;;;25.48;64.05;98812.66;1694452;83;21962;-86
2022/07/19 08:41:48;;;;;;;;;;;;;;;25.61;63.21;98816.83;1696399;84;20996;-84
2022/07/19 08:44:16;;;;;;;;;;;;;;;25.75;62.80;98813.22;1695925;84;24385;-85
2022/07/19 08:46:42;;;;;;;;;;;;;;;25.83;61.88;98812.59;1696392;84;20220;-85
2022/07/19 08:49:09;;;;;;;;;;;;;;;25.79;60.78;98805.13;1695671;83;24745;-85
2022/07/19 08:51:35;;;;;;;;;;;;;;;25.73;59.91;98813.44;1697122;84;21954;-86
2022/07/19 08:54:01;;;;;;;;;;;;;;;25.82;59.53;98807.41;1696800;84;20868;-86
2022/07/19 08:59:15;;;;;;;;;;;;;;;25.88;58.54;98807.97;1695518;84;20244;-85
2022/07/19 09:01:41;;;;;;;;;;;;;;;26.00;58.21;98807.75;1696361;84;20257;-85
2022/07/19 09:04:17;;;;;;;;;;;;;;;26.16;57.82;98799.39;1695974;84;20895;-85
2022/07/19 09:06:51;;;;;;;;;;;;;;;26.31;57.54;98798.45;1695760;83;26076;-86
2022/07/19 09:09:26;;;;;;;;;;;;;;;26.48;57.44;98803.81;1696287;84;24453;-85
2022/07/19 09:11:52;;;;;;;;;;;;;;;26.54;56.90;98794.45;1694496;83;20262;-85
2022/07/19 09:14:22;;;;;;;;;;;;;;;26.59;56.55;98796.53;1696898;84;24926;-84
2022/07/19 09:16:50;;;;;;;;;;;;;;;26.65;56.24;98795.73;1696055;83;22081;-85
2022/07/19 09:19:17;;;;;;;;;;;;;;;26.67;55.78;98798.23;1696193;84;26036;-85
2022/07/19 09:22:00;;;;;;;;;;;;;;;26.68;55.12;98794.49;1695510;84;24430;-86
2022/07/19 09:24:27;;;;;;;;;;;;;;;26.73;54.54;98798.23;1698769;82;20128;-85
2022/07/19 09:26:58;;;;;;;;;;;;;;;26.84;54.24;98801.67;1714474;82;25552;-85
2022/07/19 09:29:27;;;;;;;;;;;;;;;26.94;53.77;98799.49;1712395;82;22057;-85
2022/07/19 09:31:58;;;;;;;;;;;;;;;27.07;53.32;98800.02;1714043;82;26898;-85
2022/07/19 09:34:32;;;;;;;;;;;;;;;27.08;52.59;98796.30;1707472;82;24433;-85
2022/07/19 09:37:15;;;;;;;;;;;;;;;27.12;52.10;98794.03;1710365;82;20203;-85
2022/07/19 09:39:45;;;;;;;;;;;;;;;27.08;51.56;98792.28;1716663;82;24851;-85
2022/07/19 09:42:12;;;;;;;;;;;;;;;27.03;50.94;98788.03;1705087;82;22067;-85
2022/07/19 09:44:38;;;;;;;;;;;;;;;27.12;50.69;98787.31;1703570;82;25958;-85
2022/07/19 09:47:04;;;;;;;;;;;;;;;27.23;50.44;98788.88;1712563;82;20932;-85
2022/07/19 09:49:30;;;;;;;;;;;;;;;27.42;50.26;98788.61;1716621;82;20808;-85
2022/07/19 09:51:56;;;;;;;;;;;;;;;27.59;49.71;98785.02;1711180;82;24892;-85
2022/07/19 09:54:23;;;;;;;;;;;;;;;27.72;49.39;98787.17;1712568;82;20909;-85
2022/07/19 09:56:50;;;;;;;;;;;;;;;27.83;49.11;98789.23;1707337;82;25996;-85
2022/07/19 09:59:16;;;;;;;;;;;;;;;27.89;48.72;98785.72;1712843;82;25344;-85
2022/07/19 10:01:43;;;;;;;;;;;;;;;27.94;48.46;98786.42;1710223;82;20493;-85
2022/07/19 10:04:10;;;;;;;;;;;;;;;28.02;48.19;98788.08;1710977;82;24882;-84
2022/07/19 10:06:37;;;;;;;;;;;;;;;28.06;47.87;98782.58;1708499;82;22096;-85
2022/07/19 10:09:04;;;;;;;;;;;;;;;28.05;47.39;98785.78;1706475;82;26034;-85
2022/07/19 10:11:31;;;;;;;;;;;;;;;28.10;47.11;98784.63;1706946;82;25021;-85
2022/07/19 10:13:57;;;;;;;;;;;;;;;28.11;46.80;98778.73;1706673;82;20341;-85
2022/07/19 10:16:31;;;;;;;;;;;;;;;28.16;46.71;98777.61;1705044;82;24794;-85
2022/07/19 10:19:15;;;;;;;;;;;;;;;28.23;46.18;98778.44;1710816;82;21990;-85
2022/07/19 10:21:42;;;;;;;;;;;;;;;28.28;45.94;98776.76;1706240;82;26022;-85
2022/07/19 10:24:08;;;;;;;;;;;;;;;28.32;45.74;98774.97;1710022;82;25464;-85
2022/07/19 10:26:41;;;;;;;;;;;;;;;28.25;45.50;98771.81;1697808;83;20313;-85
2022/07/19 10:29:11;;;;;;;;;;;;;;;28.21;45.26;98772.42;1697681;83;25015;-86
2022/07/19 10:31:40;;;;;;;;;;;;;;;28.31;45.32;98773.34;1698779;83;21432;-85
2022/07/19 10:34:10;;;;;;;;;;;;;;;28.38;45.08;98778.17;1716981;83;26716;-86
2022/07/19 10:36:38;;;;;;;;;;;;;;;28.31;44.45;98774.18;1699126;83;24678;-85
2022/07/19 10:39:20;;;;;;;;;;;;;;;28.38;44.24;98772.78;1701832;83;20215;-85
2022/07/19 10:42:04;;;;;;;;;;;;;;;28.33;43.91;98759.97;1695347;83;24970;-85
2022/07/19 10:44:30;;;;;;;;;;;;;;;28.41;43.73;98764.30;1642410;86;21987;-85
2022/07/19 10:46:56;;;;;;;;;;;;;;;28.44;43.51;98770.07;1676753;83;26369;-84
2022/07/19 10:49:40;;;;;;;;;;;;;;;28.57;43.57;98764.64;1702364;83;20269;-84
2022/07/19 10:52:25;;;;;;;;;;;;;;;28.76;43.73;98764.26;1706090;82;20156;-85
2022/07/19 10:55:10;;;;;;;;;;;;;;;28.76;43.52;98764.26;1705671;83;25639;-85
2022/07/19 10:57:40;;;;;;;;;;;;;;;28.65;43.14;98760.34;1704396;83;22013;-85
2022/07/19 11:00:10;;;;;;;;;;;;;;;28.69;43.36;98761.55;1700259;83;26073;-85
2022/07/19 11:02:36;;;;;;;;;;;;;;;28.88;43.30;98757.15;1692174;83;24530;-85
2022/07/19 11:05:04;;;;;;;;;;;;;;;29.02;43.09;98758.70;1694918;83;20542;-84
2022/07/19 11:07:29;;;;;;;;;;;;;;;29.06;42.82;98758.60;1702745;83;24742;-85
2022/07/19 11:09:57;;;;;;;;;;;;;;;29.12;42.69;98755.56;1704487;83;22038;-85
2022/07/19 11:12:28;;;;;;;;;;;;;;;29.12;42.38;98755.56;1699592;83;26108;-84
2022/07/19 11:14:55;;;;;;;;;;;;;;;29.21;42.23;98744.80;1699002;83;24563;-84
2022/07/19 11:17:21;;;;;;;;;;;;;;;29.36;41.99;98748.03;1708845;83;20559;-85
2022/07/19 11:20:07;;;;;;;;;;;;;;;29.46;42.02;98743.48;1709592;82;24825;-85
2022/07/19 11:22:38;;;;;;;;;;;;;;;29.53;41.96;98742.91;1704516;83;22118;-85
2022/07/19 11:25:05;;;;;;;;;;;;;;;29.47;41.57;98735.70;1705252;82;26134;-85
2022/07/19 11:27:31;;;;;;;;;;;;;;;29.42;41.35;98729.63;1714050;82;24443;-85
2022/07/19 11:29:58;;;;;;;;;;;;;;;29.44;41.28;98734.28;1713120;82;20328;-84
2022/07/19 11:32:24;;;;;;;;;;;;;;;29.54;41.21;98736.47;1711266;82;25520;-85
2022/07/19 11:34:55;;;;;;;;;;;;;;;29.65;41.18;98739.80;1720707;82;20887;-85
2022/07/19 11:37:26;;;;;;;;;;;;;;;29.73;41.09;98730.05;1707079;82;26852;-84
2022/07/19 11:39:52;;;;;;;;;;;;;;;29.78;41.07;98727.54;1715951;82;24260;-85
2022/07/19 11:42:31;;;;;;;;;;;;;;;29.79;40.85;98729.69;1713179;82;20261;-84
2022/07/19 11:44:57;;;;;;;;;;;;;;;29.82;40.64;98730.09;1715892;82;25096;-85
2022/07/19 11:47:23;;;;;;;;;;;;;;;29.90;40.81;98731.68;1702909;82;20900;-85
2022/07/19 11:49:49;;;;;;;;;;;;;;;29.95;40.76;98726.98;1714423;82;26231;-85
2022/07/19 11:52:15;;;;;;;;;;;;;;;29.90;40.48;98724.94;1704464;83;20337;-85
2022/07/19 11:54:41;;;;;;;;;;;;;;;30.00;40.28;98727.14;1704018;82;20927;-85
2022/07/19 11:57:23;;;;;;;;;;;;;;;30.13;40.46;98723.75;1708021;82;20238;-86
2022/07/19 11:59:49;;;;;;;;;;;;;;;30.22;40.63;98721.03;1706712;82;22363;-85
2022/07/19 12:02:15;;;;;;;;;;;;;;;30.30;40.41;98724.80;1712823;82;25921;-85
2022/07/19 12:04:41;;;;;;;;;;;;;;;30.35;40.07;98724.94;1701808;83;20848;-86
2022/07/19 12:07:09;;;;;;;;;;;;;;;30.24;39.53;98712.72;1701736;84;20197;-86
2022/07/19 12:09:36;;;;;;;;;;;;;;;30.16;39.28;98716.56;1676340;84;20765;-86
2022/07/19 12:12:13;;;;;;;;;;;;;;;30.24;39.21;98710.02;1704370;82;22041;-86
2022/07/19 12:14:40;;;;;;;;;;;;;;;30.32;39.29;98714.60;1710105;82;26030;-86
2022/07/19 12:17:10;;;;;;;;;;;;;;;30.38;39.13;98713.39;1710189;82;24543;-86
2022/07/19 12:19:36;;;;;;;;;;;;;;;30.42;39.03;98717.28;1712358;82;20247;-86
2022/07/19 12:22:02;;;;;;;;;;;;;;;30.55;39.37;98714.45;1705901;82;24801;-86
2022/07/19 12:24:29;;;;;;;;;;;;;;;30.56;39.04;98715.55;1711721;82;21911;-86
2022/07/19 12:26:57;;;;;;;;;;;;;;;30.49;38.81;98712.13;1708469;82;26619;-86
2022/07/19 12:29:28;;;;;;;;;;;;;;;30.56;38.73;98706.62;1705034;82;24529;-85
2022/07/19 12:31:58;;;;;;;;;;;;;;;30.67;38.88;98699.91;1688375;84;20185;-86
2022/07/19 12:34:25;;;;;;;;;;;;;;;30.64;38.41;98707.14;1710921;82;24813;-85
2022/07/19 12:36:51;;;;;;;;;;;;;;;30.68;38.45;98698.04;1711065;82;22663;-86
2022/07/19 12:39:19;;;;;;;;;;;;;;;30.59;38.09;98695.38;1710882;82;25734;-86
2022/07/19 12:41:55;;;;;;;;;;;;;;;30.53;37.82;98700.33;1690632;83;24692;-86
2022/07/19 12:44:21;;;;;;;;;;;;;;;30.52;37.59;98697.33;1714226;82;20215;-86
2022/07/19 12:46:47;;;;;;;;;;;;;;;30.47;37.12;98698.02;1706076;83;20222;-86
2022/07/19 12:49:13;;;;;;;;;;;;;;;30.51;37.03;98692.97;1711102;82;21927;-86